Tioga, West Virginia
Current Conditions -  °F | °C
As of 9:15 AM on Friday 24 Oct 2014 (Local Time) from KLWB Reporting Station
Clear Clear  
Wind Chill: 44°   Ceiling: Unl
Heat Index: 44°   Visibility: 7mi
Dew Point: 42°   Wind: 0mph
Humidity: 91%   Direction: NA
Pressure: 30.11"   Gusts: NA
Location:  38.42°N, 80.66°W
Report Text: KLWB 241315Z AUTO 00000KT 7SM CLR 07/05 A3011 RMK AO2 T00660053
Loading
Personal Weather Stations






























Interactive Weather Map
Tropical Storm Tracking
New forecast layout! Learn more

10-Day Weather Forecast

Advertisements
Track Severe Weather on mobile